ADDS METAR Data INFO
IDs: Format: Raw Decoded Include TAF

Data at: 0438 UTC 24 Apr 2018

KCOT 240353Z AUTO 16008KT 10SM CLR 23/11 A3003 RMK AO2 SLP160 T02330111
KCOT 240253Z AUTO 13005KT 10SM CLR 23/11 A3000 RMK AO2 SLP152 T02280106 53016
KCOT 240153Z AUTO 14004KT 10SM CLR 25/11 A2998 RMK AO2 SLP146 T02500106
KCOT 240053Z AUTO 13006KT 10SM CLR 28/11 A2996 RMK AO2 SLP140 T02780106
KCOT 232353Z AUTO 14008KT 10SM CLR 30/11 A2995 RMK AO2 SLP136 T03000106 10306 20261 56017
KCOT 232253Z AUTO VRB05KT 10SM CLR 30/10 A2995 RMK AO2 SLP136 T03000100
KCOT 232153Z AUTO 10SM CLR 30/10 A2997 RMK AO2 SLP141 T03000100
KCOT 232053Z AUTO 15005KT 10SM CLR 29/09 A3000 RMK AO2 SLP152 T02940094 58035
KCOT 231953Z AUTO 15007KT 10SM CLR 29/09 A3004 RMK AO2 SLP166 T02890094
KCOT 231853Z AUTO 17008G14KT 10SM BKN065 27/09 A3007 RMK AO2 SLP176 T02720089
KCOT 231753Z AUTO VRB05KT 10SM SCT060 27/09 A3010 RMK AO2 SLP187 T02670094 10267 20139 58008
KCOT 231653Z AUTO 12007KT 10SM CLR 25/11 A3012 RMK AO2 SLP194 T02500106
KCOT 231553Z AUTO 11007KT 10SM CLR 23/11 A3013 RMK AO2 SLP197 T02280106
KCOT 231453Z AUTO 12009KT 10SM CLR 21/11 A3013 RMK AO2 SLP196 T02110111 51015
KCOT 231353Z AUTO 11008KT 10SM CLR 19/12 A3012 RMK AO2 SLP192 T01890117
KCOT 231253Z AUTO 09006KT 10SM CLR 15/11 A3010 RMK AO2 SLP186 T01500111
KCOT 231153Z AUTO 12004KT 10SM CLR 14/11 A3008 RMK AO2 SLP181 T01440111 10194 20144 51018
KCOT 231053Z AUTO 00000KT 10SM CLR 15/11 A3008 RMK AO2 SLP178 T01500111
KCOT 230953Z AUTO 07005KT 10SM CLR 16/11 A3005 RMK AO2 SLP168 T01560111
KCOT 230853Z AUTO 09005KT 10SM CLR 16/12 A3003 RMK AO2 SLP163 T01610117 58001
KCOT 230753Z AUTO 12005KT 10SM CLR 17/11 A3003 RMK AO2 SLP163 T01670111
KCOT 230653Z AUTO 10006KT 10SM CLR 18/11 A3004 RMK AO2 SLP165 T01780111
KCOT 230553Z AUTO 10006KT 10SM CLR 19/11 A3003 RMK AO2 SLP164 T01890106 10272 20189 402890122 51005
KCOT 230453Z AUTO 11006KT 10SM CLR 20/09 A3002 RMK AO2 SLP160 T02000094
KCOT 230353Z AUTO 12006KT 10SM CLR 22/09 A3003 RMK AO2 SLP164 T02170089
KCOT 230253Z AUTO 13008KT 10SM CLR 22/08 A3002 RMK AO2 SLP158 T02220078 53013
KCOT 230153Z AUTO 06006KT 10SM CLR 24/08 A2999 RMK AO2 SLP149 T02390078
KCOT 230053Z AUTO 03003KT 10SM CLR 26/08 A2999 RMK AO2 SLP149 T02610078
KCOT 222353Z AUTO 03007KT 10SM CLR 27/08 A2998 RMK AO2 SLP145 T02720078 10289 20239 55008
KCOT 222253Z AUTO 03007KT 10SM CLR 28/08 A2996 RMK AO2 SLP140 T02830078
KCOT 222153Z AUTO 01007KT 10SM CLR 27/08 A2997 RMK AO2 SLP144 T02720078
KCOT 222053Z AUTO 33008KT 10SM CLR 28/07 A3000 RMK AO2 SLP153 T02830072 58033
KCOT 221953Z AUTO 03009G15KT 10SM CLR 27/08 A3004 RMK AO2 SLP167 T02720078
KCOT 221853Z AUTO VRB05KT 10SM CLR 25/08 A3007 RMK AO2 SLP177 T02500083
KCOT 221753Z AUTO 01010G15KT 10SM CLR 24/09 A3010 RMK AO2 SLP188 T02390089 10244 20122 58009
KCOT 221653Z AUTO 03011KT 10SM CLR 23/09 A3013 RMK AO2 SLP198 T02280089